sensor_id;sensor_type;location;lat;lon;timestamp;P1;durP1;ratioP1;P2;durP2;ratioP2
79640;SDS011;69115;49.904;14.390;2023-09-07T00:00:11;11.35;;;8.98;;
79640;SDS011;69115;49.904;14.390;2023-09-07T00:02:37;11.32;;;8.25;;
79640;SDS011;69115;49.904;14.390;2023-09-07T00:05:04;12.30;;;8.60;;
79640;SDS011;69115;49.904;14.390;2023-09-07T00:07:31;12.75;;;9.10;;
79640;SDS011;69115;49.904;14.390;2023-09-07T00:09:56;13.20;;;9.32;;
79640;SDS011;69115;49.904;14.390;2023-09-07T00:12:22;13.93;;;9.10;;
79640;SDS011;69115;49.904;14.390;2023-09-07T00:14:47;13.13;;;10.45;;
79640;SDS011;69115;49.904;14.390;2023-09-07T00:17:12;13.45;;;9.85;;
79640;SDS011;69115;49.904;14.390;2023-09-07T00:19:38;12.32;;;10.93;;
79640;SDS011;69115;49.904;14.390;2023-09-07T00:22:04;12.73;;;9.95;;
79640;SDS011;69115;49.904;14.390;2023-09-07T00:24:30;12.95;;;10.32;;
79640;SDS011;69115;49.904;14.390;2023-09-07T00:26:56;14.52;;;10.02;;
79640;SDS011;69115;49.904;14.390;2023-09-07T00:29:22;13.73;;;10.18;;
79640;SDS011;69115;49.904;14.390;2023-09-07T00:31:48;12.98;;;10.02;;
79640;SDS011;69115;49.904;14.390;2023-09-07T00:34:14;12.70;;;10.25;;
79640;SDS011;69115;49.904;14.390;2023-09-07T00:36:39;15.70;;;10.75;;
79640;SDS011;69115;49.904;14.390;2023-09-07T00:39:04;12.27;;;10.13;;
79640;SDS011;69115;49.904;14.390;2023-09-07T00:41:30;13.20;;;10.05;;
79640;SDS011;69115;49.904;14.390;2023-09-07T00:43:55;13.45;;;9.43;;
79640;SDS011;69115;49.904;14.390;2023-09-07T00:46:21;11.98;;;9.65;;
79640;SDS011;69115;49.904;14.390;2023-09-07T00:48:47;12.93;;;9.75;;
79640;SDS011;69115;49.904;14.390;2023-09-07T00:51:13;12.85;;;9.85;;
79640;SDS011;69115;49.904;14.390;2023-09-07T00:53:39;11.73;;;8.38;;
79640;SDS011;69115;49.904;14.390;2023-09-07T00:56:05;14.30;;;9.60;;
79640;SDS011;69115;49.904;14.390;2023-09-07T00:58:30;14.00;;;8.98;;
79640;SDS011;69115;49.904;14.390;2023-09-07T01:00:56;11.48;;;8.48;;
79640;SDS011;69115;49.904;14.390;2023-09-07T01:03:21;14.13;;;9.40;;
79640;SDS011;69115;49.904;14.390;2023-09-07T01:05:51;16.63;;;10.30;;
79640;SDS011;69115;49.904;14.390;2023-09-07T01:08:23;13.30;;;9.88;;
79640;SDS011;69115;49.904;14.390;2023-09-07T01:10:54;14.95;;;8.77;;
79640;SDS011;69115;49.904;14.390;2023-09-07T01:13:19;12.05;;;8.48;;
79640;SDS011;69115;49.904;14.390;2023-09-07T01:15:45;12.18;;;9.35;;
79640;SDS011;69115;49.904;14.390;2023-09-07T01:18:11;12.73;;;8.98;;
79640;SDS011;69115;49.904;14.390;2023-09-07T01:20:36;11.77;;;9.18;;
79640;SDS011;69115;49.904;14.390;2023-09-07T01:23:03;11.07;;;8.18;;
79640;SDS011;69115;49.904;14.390;2023-09-07T01:25:29;11.68;;;8.02;;
79640;SDS011;69115;49.904;14.390;2023-09-07T01:27:56;9.77;;;7.97;;
79640;SDS011;69115;49.904;14.390;2023-09-07T01:30:21;11.07;;;8.15;;
79640;SDS011;69115;49.904;14.390;2023-09-07T01:32:47;10.20;;;7.55;;
79640;SDS011;69115;49.904;14.390;2023-09-07T01:35:14;11.50;;;7.72;;
79640;SDS011;69115;49.904;14.390;2023-09-07T01:37:42;12.18;;;7.90;;
79640;SDS011;69115;49.904;14.390;2023-09-07T01:40:07;12.13;;;7.78;;
79640;SDS011;69115;49.904;14.390;2023-09-07T01:42:33;14.60;;;7.82;;
79640;SDS011;69115;49.904;14.390;2023-09-07T01:44:59;9.10;;;7.38;;
79640;SDS011;69115;49.904;14.390;2023-09-07T01:47:24;10.57;;;7.60;;
79640;SDS011;69115;49.904;14.390;2023-09-07T01:49:50;11.13;;;7.22;;
79640;SDS011;69115;49.904;14.390;2023-09-07T01:52:15;9.85;;;6.68;;
79640;SDS011;69115;49.904;14.390;2023-09-07T01:54:41;11.25;;;6.93;;
79640;SDS011;69115;49.904;14.390;2023-09-07T01:57:06;9.60;;;7.72;;
79640;SDS011;69115;49.904;14.390;2023-09-07T01:59:31;8.80;;;7.07;;
79640;SDS011;69115;49.904;14.390;2023-09-07T02:01:57;11.82;;;7.80;;
79640;SDS011;69115;49.904;14.390;2023-09-07T02:04:22;8.43;;;7.10;;
79640;SDS011;69115;49.904;14.390;2023-09-07T02:06:47;10.23;;;7.43;;
79640;SDS011;69115;49.904;14.390;2023-09-07T02:09:13;10.55;;;7.93;;
79640;SDS011;69115;49.904;14.390;2023-09-07T02:11:38;10.32;;;8.23;;
79640;SDS011;69115;49.904;14.390;2023-09-07T02:14:05;12.15;;;8.27;;
79640;SDS011;69115;49.904;14.390;2023-09-07T02:16:30;9.60;;;7.68;;
79640;SDS011;69115;49.904;14.390;2023-09-07T02:19:02;10.38;;;8.00;;
79640;SDS011;69115;49.904;14.390;2023-09-07T02:21:28;10.20;;;7.28;;
79640;SDS011;69115;49.904;14.390;2023-09-07T02:23:54;9.65;;;8.30;;
79640;SDS011;69115;49.904;14.390;2023-09-07T02:26:19;9.68;;;7.78;;
79640;SDS011;69115;49.904;14.390;2023-09-07T02:28:44;9.40;;;7.50;;
79640;SDS011;69115;49.904;14.390;2023-09-07T02:31:10;11.88;;;8.15;;
79640;SDS011;69115;49.904;14.390;2023-09-07T02:33:36;9.82;;;7.60;;
79640;SDS011;69115;49.904;14.390;2023-09-07T02:36:01;12.05;;;8.00;;
79640;SDS011;69115;49.904;14.390;2023-09-07T02:38:27;10.23;;;7.93;;
79640;SDS011;69115;49.904;14.390;2023-09-07T02:40:54;9.30;;;7.32;;
79640;SDS011;69115;49.904;14.390;2023-09-07T02:43:20;10.05;;;7.47;;
79640;SDS011;69115;49.904;14.390;2023-09-07T02:45:46;12.48;;;8.55;;
79640;SDS011;69115;49.904;14.390;2023-09-07T02:48:13;11.00;;;8.57;;
79640;SDS011;69115;49.904;14.390;2023-09-07T02:50:39;11.85;;;8.32;;
79640;SDS011;69115;49.904;14.390;2023-09-07T02:53:05;12.02;;;9.35;;
79640;SDS011;69115;49.904;14.390;2023-09-07T02:55:30;9.20;;;7.57;;
79640;SDS011;69115;49.904;14.390;2023-09-07T02:57:56;11.13;;;7.85;;
79640;SDS011;69115;49.904;14.390;2023-09-07T03:00:21;10.63;;;8.23;;
79640;SDS011;69115;49.904;14.390;2023-09-07T03:02:47;10.55;;;8.43;;
79640;SDS011;69115;49.904;14.390;2023-09-07T03:05:13;11.45;;;8.57;;
79640;SDS011;69115;49.904;14.390;2023-09-07T03:07:39;10.88;;;7.35;;
79640;SDS011;69115;49.904;14.390;2023-09-07T03:10:05;11.60;;;8.20;;
79640;SDS011;69115;49.904;14.390;2023-09-07T03:12:30;11.18;;;7.50;;
79640;SDS011;69115;49.904;14.390;2023-09-07T03:14:56;12.65;;;8.20;;
79640;SDS011;69115;49.904;14.390;2023-09-07T03:17:21;12.48;;;8.77;;
79640;SDS011;69115;49.904;14.390;2023-09-07T03:19:47;14.95;;;10.23;;
79640;SDS011;69115;49.904;14.390;2023-09-07T03:22:12;13.75;;;9.82;;
79640;SDS011;69115;49.904;14.390;2023-09-07T03:24:38;14.35;;;10.73;;
79640;SDS011;69115;49.904;14.390;2023-09-07T03:27:04;16.45;;;11.63;;
79640;SDS011;69115;49.904;14.390;2023-09-07T03:29:30;14.82;;;10.30;;
79640;SDS011;69115;49.904;14.390;2023-09-07T03:31:58;13.75;;;10.75;;
79640;SDS011;69115;49.904;14.390;2023-09-07T03:34:24;13.25;;;10.13;;
79640;SDS011;69115;49.904;14.390;2023-09-07T03:36:49;16.58;;;9.90;;
79640;SDS011;69115;49.904;14.390;2023-09-07T03:39:15;13.73;;;9.32;;
79640;SDS011;69115;49.904;14.390;2023-09-07T03:41:40;16.00;;;9.35;;
79640;SDS011;69115;49.904;14.390;2023-09-07T03:44:05;14.05;;;9.73;;
79640;SDS011;69115;49.904;14.390;2023-09-07T03:46:31;11.73;;;8.60;;
79640;SDS011;69115;49.904;14.390;2023-09-07T03:48:56;11.88;;;8.07;;
79640;SDS011;69115;49.904;14.390;2023-09-07T03:51:22;11.30;;;7.70;;
79640;SDS011;69115;49.904;14.390;2023-09-07T03:53:47;11.95;;;8.55;;
79640;SDS011;69115;49.904;14.390;2023-09-07T03:56:12;10.93;;;8.52;;
79640;SDS011;69115;49.904;14.390;2023-09-07T03:58:38;9.98;;;7.50;;
79640;SDS011;69115;49.904;14.390;2023-09-07T04:01:03;10.48;;;8.02;;
79640;SDS011;69115;49.904;14.390;2023-09-07T04:03:31;10.18;;;8.30;;
79640;SDS011;69115;49.904;14.390;2023-09-07T04:05:57;12.30;;;8.90;;
79640;SDS011;69115;49.904;14.390;2023-09-07T04:08:22;10.63;;;8.00;;
79640;SDS011;69115;49.904;14.390;2023-09-07T04:10:48;12.07;;;8.82;;
79640;SDS011;69115;49.904;14.390;2023-09-07T04:13:13;14.50;;;9.20;;
79640;SDS011;69115;49.904;14.390;2023-09-07T04:15:43;10.95;;;8.68;;
79640;SDS011;69115;49.904;14.390;2023-09-07T04:18:09;12.27;;;9.05;;
79640;SDS011;69115;49.904;14.390;2023-09-07T04:20:37;12.65;;;8.40;;
79640;SDS011;69115;49.904;14.390;2023-09-07T04:23:03;11.18;;;7.50;;
79640;SDS011;69115;49.904;14.390;2023-09-07T04:25:28;11.10;;;8.93;;
79640;SDS011;69115;49.904;14.390;2023-09-07T04:27:54;11.07;;;8.57;;
79640;SDS011;69115;49.904;14.390;2023-09-07T04:30:21;11.13;;;8.88;;
79640;SDS011;69115;49.904;14.390;2023-09-07T04:32:46;12.38;;;9.32;;
79640;SDS011;69115;49.904;14.390;2023-09-07T04:35:12;12.95;;;9.32;;
79640;SDS011;69115;49.904;14.390;2023-09-07T04:37:37;13.32;;;9.90;;
79640;SDS011;69115;49.904;14.390;2023-09-07T04:40:05;10.98;;;8.38;;
79640;SDS011;69115;49.904;14.390;2023-09-07T04:42:32;10.65;;;8.05;;
79640;SDS011;69115;49.904;14.390;2023-09-07T04:44:58;11.30;;;7.90;;
79640;SDS011;69115;49.904;14.390;2023-09-07T04:47:23;9.75;;;6.90;;
79640;SDS011;69115;49.904;14.390;2023-09-07T04:49:49;9.90;;;6.72;;
79640;SDS011;69115;49.904;14.390;2023-09-07T04:52:17;11.02;;;7.80;;
79640;SDS011;69115;49.904;14.390;2023-09-07T04:54:43;9.95;;;8.23;;
79640;SDS011;69115;49.904;14.390;2023-09-07T04:57:09;12.60;;;8.27;;
79640;SDS011;69115;49.904;14.390;2023-09-07T04:59:34;10.13;;;8.10;;
79640;SDS011;69115;49.904;14.390;2023-09-07T05:02:00;10.43;;;7.97;;
79640;SDS011;69115;49.904;14.390;2023-09-07T05:04:28;11.05;;;8.63;;
79640;SDS011;69115;49.904;14.390;2023-09-07T05:06:54;15.93;;;9.10;;
79640;SDS011;69115;49.904;14.390;2023-09-07T05:09:20;12.27;;;8.73;;
79640;SDS011;69115;49.904;14.390;2023-09-07T05:11:46;12.77;;;8.75;;
79640;SDS011;69115;49.904;14.390;2023-09-07T05:14:11;12.02;;;8.60;;
79640;SDS011;69115;49.904;14.390;2023-09-07T05:16:37;11.63;;;8.13;;
79640;SDS011;69115;49.904;14.390;2023-09-07T05:19:02;10.25;;;8.10;;
79640;SDS011;69115;49.904;14.390;2023-09-07T05:21:28;10.98;;;7.78;;
79640;SDS011;69115;49.904;14.390;2023-09-07T05:23:53;13.52;;;8.57;;
79640;SDS011;69115;49.904;14.390;2023-09-07T05:26:22;11.95;;;8.57;;
79640;SDS011;69115;49.904;14.390;2023-09-07T05:28:50;12.75;;;9.15;;
79640;SDS011;69115;49.904;14.390;2023-09-07T05:31:19;23.17;;;10.45;;
79640;SDS011;69115;49.904;14.390;2023-09-07T05:33:53;14.05;;;9.07;;
79640;SDS011;69115;49.904;14.390;2023-09-07T05:36:28;21.45;;;11.60;;
79640;SDS011;69115;49.904;14.390;2023-09-07T05:39:01;20.05;;;11.30;;
79640;SDS011;69115;49.904;14.390;2023-09-07T05:41:43;19.00;;;11.13;;
79640;SDS011;69115;49.904;14.390;2023-09-07T05:44:16;23.08;;;11.80;;
79640;SDS011;69115;49.904;14.390;2023-09-07T05:46:55;22.52;;;11.68;;
79640;SDS011;69115;49.904;14.390;2023-09-07T05:49:24;19.77;;;11.30;;
79640;SDS011;69115;49.904;14.390;2023-09-07T05:51:56;16.02;;;11.57;;
79640;SDS011;69115;49.904;14.390;2023-09-07T05:54:29;16.05;;;10.57;;
79640;SDS011;69115;49.904;14.390;2023-09-07T05:57:02;17.27;;;10.02;;
79640;SDS011;69115;49.904;14.390;2023-09-07T05:59:34;15.50;;;10.60;;
79640;SDS011;69115;49.904;14.390;2023-09-07T06:02:10;15.35;;;9.88;;
79640;SDS011;69115;49.904;14.390;2023-09-07T06:04:43;14.18;;;9.10;;
79640;SDS011;69115;49.904;14.390;2023-09-07T06:07:13;16.55;;;9.32;;
79640;SDS011;69115;49.904;14.390;2023-09-07T06:09:45;14.73;;;9.38;;
79640;SDS011;69115;49.904;14.390;2023-09-07T06:12:21;11.40;;;8.98;;
79640;SDS011;69115;49.904;14.390;2023-09-07T06:15:02;11.77;;;8.88;;
79640;SDS011;69115;49.904;14.390;2023-09-07T06:17:36;13.82;;;8.77;;
79640;SDS011;69115;49.904;14.390;2023-09-07T06:20:02;13.23;;;9.30;;
79640;SDS011;69115;49.904;14.390;2023-09-07T06:22:28;15.38;;;9.57;;
79640;SDS011;69115;49.904;14.390;2023-09-07T06:24:53;13.55;;;9.77;;
79640;SDS011;69115;49.904;14.390;2023-09-07T06:27:19;14.82;;;9.85;;
79640;SDS011;69115;49.904;14.390;2023-09-07T06:29:45;14.57;;;9.98;;
79640;SDS011;69115;49.904;14.390;2023-09-07T06:32:11;25.63;;;12.75;;
79640;SDS011;69115;49.904;14.390;2023-09-07T06:34:37;30.02;;;13.88;;
79640;SDS011;69115;49.904;14.390;2023-09-07T06:37:02;19.45;;;11.23;;
79640;SDS011;69115;49.904;14.390;2023-09-07T06:39:27;20.50;;;11.55;;
79640;SDS011;69115;49.904;14.390;2023-09-07T06:41:53;13.95;;;10.82;;
79640;SDS011;69115;49.904;14.390;2023-09-07T06:44:18;14.82;;;10.73;;
79640;SDS011;69115;49.904;14.390;2023-09-07T06:46:44;13.85;;;9.95;;
79640;SDS011;69115;49.904;14.390;2023-09-07T06:49:09;13.82;;;10.98;;
79640;SDS011;69115;49.904;14.390;2023-09-07T06:51:34;12.45;;;9.55;;
79640;SDS011;69115;49.904;14.390;2023-09-07T06:54:00;13.02;;;10.00;;
79640;SDS011;69115;49.904;14.390;2023-09-07T06:56:25;13.23;;;9.95;;
79640;SDS011;69115;49.904;14.390;2023-09-07T06:58:56;14.98;;;10.20;;
79640;SDS011;69115;49.904;14.390;2023-09-07T07:01:21;16.80;;;10.30;;
79640;SDS011;69115;49.904;14.390;2023-09-07T07:03:47;18.50;;;10.52;;
79640;SDS011;69115;49.904;14.390;2023-09-07T07:06:12;15.02;;;10.98;;
79640;SDS011;69115;49.904;14.390;2023-09-07T07:08:38;14.93;;;10.15;;
79640;SDS011;69115;49.904;14.390;2023-09-07T07:11:03;14.00;;;9.85;;
79640;SDS011;69115;49.904;14.390;2023-09-07T07:13:28;14.45;;;10.65;;
79640;SDS011;69115;49.904;14.390;2023-09-07T07:15:54;13.82;;;9.13;;
79640;SDS011;69115;49.904;14.390;2023-09-07T07:18:20;22.85;;;10.98;;
79640;SDS011;69115;49.904;14.390;2023-09-07T07:20:45;13.02;;;10.02;;
79640;SDS011;69115;49.904;14.390;2023-09-07T07:23:11;11.82;;;10.05;;
79640;SDS011;69115;49.904;14.390;2023-09-07T07:25:37;12.55;;;8.82;;
79640;SDS011;69115;49.904;14.390;2023-09-07T07:28:03;11.75;;;9.23;;
79640;SDS011;69115;49.904;14.390;2023-09-07T07:30:35;9.90;;;8.32;;
79640;SDS011;69115;49.904;14.390;2023-09-07T07:33:03;12.05;;;9.15;;
79640;SDS011;69115;49.904;14.390;2023-09-07T07:35:32;11.85;;;8.88;;
79640;SDS011;69115;49.904;14.390;2023-09-07T07:37:59;15.60;;;9.35;;
79640;SDS011;69115;49.904;14.390;2023-09-07T07:40:25;9.90;;;8.00;;
79640;SDS011;69115;49.904;14.390;2023-09-07T07:42:51;13.25;;;8.80;;
79640;SDS011;69115;49.904;14.390;2023-09-07T07:45:17;11.63;;;8.10;;
79640;SDS011;69115;49.904;14.390;2023-09-07T07:47:47;10.50;;;7.80;;
79640;SDS011;69115;49.904;14.390;2023-09-07T07:50:14;14.02;;;8.82;;
79640;SDS011;69115;49.904;14.390;2023-09-07T07:52:40;11.85;;;9.05;;
79640;SDS011;69115;49.904;14.390;2023-09-07T07:55:05;11.13;;;7.78;;
79640;SDS011;69115;49.904;14.390;2023-09-07T07:57:31;10.68;;;7.93;;
79640;SDS011;69115;49.904;14.390;2023-09-07T07:59:57;11.70;;;7.15;;
79640;SDS011;69115;49.904;14.390;2023-09-07T08:02:23;12.77;;;8.43;;
79640;SDS011;69115;49.904;14.390;2023-09-07T08:04:48;9.85;;;7.90;;
79640;SDS011;69115;49.904;14.390;2023-09-07T08:07:13;11.48;;;8.18;;
79640;SDS011;69115;49.904;14.390;2023-09-07T08:09:39;12.85;;;8.63;;
79640;SDS011;69115;49.904;14.390;2023-09-07T08:12:05;14.90;;;9.13;;
79640;SDS011;69115;49.904;14.390;2023-09-07T08:14:30;9.82;;;7.60;;
79640;SDS011;69115;49.904;14.390;2023-09-07T08:16:56;10.70;;;8.30;;
79640;SDS011;69115;49.904;14.390;2023-09-07T08:19:22;10.00;;;7.88;;
79640;SDS011;69115;49.904;14.390;2023-09-07T08:21:48;12.45;;;7.40;;
79640;SDS011;69115;49.904;14.390;2023-09-07T08:24:13;9.63;;;7.63;;
79640;SDS011;69115;49.904;14.390;2023-09-07T08:26:39;9.63;;;7.50;;
79640;SDS011;69115;49.904;14.390;2023-09-07T08:29:04;10.38;;;7.05;;
79640;SDS011;69115;49.904;14.390;2023-09-07T08:31:31;11.57;;;6.68;;
79640;SDS011;69115;49.904;14.390;2023-09-07T08:34:02;9.03;;;6.90;;
79640;SDS011;69115;49.904;14.390;2023-09-07T08:36:29;9.82;;;7.53;;
79640;SDS011;69115;49.904;14.390;2023-09-07T08:38:58;8.98;;;7.00;;
79640;SDS011;69115;49.904;14.390;2023-09-07T08:41:31;11.55;;;7.03;;
79640;SDS011;69115;49.904;14.390;2023-09-07T08:43:57;9.35;;;6.82;;
79640;SDS011;69115;49.904;14.390;2023-09-07T08:46:22;13.10;;;6.65;;
79640;SDS011;69115;49.904;14.390;2023-09-07T08:48:49;10.82;;;7.13;;
79640;SDS011;69115;49.904;14.390;2023-09-07T08:51:15;11.82;;;7.45;;
79640;SDS011;69115;49.904;14.390;2023-09-07T08:53:41;9.73;;;7.70;;
79640;SDS011;69115;49.904;14.390;2023-09-07T08:56:11;10.05;;;6.68;;
79640;SDS011;69115;49.904;14.390;2023-09-07T08:58:37;11.38;;;7.28;;
79640;SDS011;69115;49.904;14.390;2023-09-07T09:01:02;11.05;;;7.45;;
79640;SDS011;69115;49.904;14.390;2023-09-07T09:03:28;10.35;;;6.97;;
79640;SDS011;69115;49.904;14.390;2023-09-07T09:05:55;11.60;;;7.80;;
79640;SDS011;69115;49.904;14.390;2023-09-07T09:08:21;10.98;;;6.57;;
79640;SDS011;69115;49.904;14.390;2023-09-07T09:10:49;14.25;;;7.53;;
79640;SDS011;69115;49.904;14.390;2023-09-07T09:13:31;10.68;;;7.10;;
79640;SDS011;69115;49.904;14.390;2023-09-07T09:16:01;13.73;;;8.07;;
79640;SDS011;69115;49.904;14.390;2023-09-07T09:18:26;12.05;;;7.28;;
79640;SDS011;69115;49.904;14.390;2023-09-07T09:20:53;10.07;;;6.10;;
79640;SDS011;69115;49.904;14.390;2023-09-07T09:23:19;10.45;;;6.30;;
79640;SDS011;69115;49.904;14.390;2023-09-07T09:25:45;9.75;;;5.60;;
79640;SDS011;69115;49.904;14.390;2023-09-07T09:28:13;7.78;;;5.68;;
79640;SDS011;69115;49.904;14.390;2023-09-07T09:30:44;8.98;;;5.60;;
79640;SDS011;69115;49.904;14.390;2023-09-07T09:33:16;12.27;;;5.55;;
79640;SDS011;69115;49.904;14.390;2023-09-07T09:35:55;11.48;;;5.43;;
79640;SDS011;69115;49.904;14.390;2023-09-07T09:38:29;9.32;;;5.78;;
79640;SDS011;69115;49.904;14.390;2023-09-07T09:41:05;6.93;;;5.28;;
79640;SDS011;69115;49.904;14.390;2023-09-07T09:43:38;7.10;;;4.80;;
79640;SDS011;69115;49.904;14.390;2023-09-07T09:46:06;6.63;;;4.22;;
79640;SDS011;69115;49.904;14.390;2023-09-07T09:48:38;7.63;;;4.55;;
79640;SDS011;69115;49.904;14.390;2023-09-07T09:51:11;7.45;;;3.95;;
79640;SDS011;69115;49.904;14.390;2023-09-07T09:53:41;9.40;;;4.88;;
79640;SDS011;69115;49.904;14.390;2023-09-07T09:56:08;6.60;;;4.00;;
79640;SDS011;69115;49.904;14.390;2023-09-07T09:58:33;8.07;;;4.60;;
79640;SDS011;69115;49.904;14.390;2023-09-07T10:00:59;9.52;;;4.80;;
79640;SDS011;69115;49.904;14.390;2023-09-07T10:03:31;5.35;;;4.30;;
79640;SDS011;69115;49.904;14.390;2023-09-07T10:06:08;7.30;;;4.28;;
79640;SDS011;69115;49.904;14.390;2023-09-07T10:08:33;8.45;;;4.68;;
79640;SDS011;69115;49.904;14.390;2023-09-07T10:10:59;6.40;;;4.10;;
79640;SDS011;69115;49.904;14.390;2023-09-07T10:13:28;10.00;;;4.22;;
79640;SDS011;69115;49.904;14.390;2023-09-07T10:16:05;6.85;;;3.72;;
79640;SDS011;69115;49.904;14.390;2023-09-07T10:18:35;5.45;;;4.03;;
79640;SDS011;69115;49.904;14.390;2023-09-07T10:21:02;7.40;;;4.20;;
79640;SDS011;69115;49.904;14.390;2023-09-07T10:23:40;7.10;;;4.07;;
79640;SDS011;69115;49.904;14.390;2023-09-07T10:26:13;6.85;;;4.10;;
79640;SDS011;69115;49.904;14.390;2023-09-07T10:28:41;6.30;;;4.28;;
79640;SDS011;69115;49.904;14.390;2023-09-07T10:31:13;7.22;;;4.40;;
79640;SDS011;69115;49.904;14.390;2023-09-07T10:33:42;5.72;;;4.20;;
79640;SDS011;69115;49.904;14.390;2023-09-07T10:36:08;7.18;;;3.72;;
79640;SDS011;69115;49.904;14.390;2023-09-07T10:38:48;6.50;;;4.10;;
79640;SDS011;69115;49.904;14.390;2023-09-07T10:41:13;6.25;;;3.70;;
79640;SDS011;69115;49.904;14.390;2023-09-07T10:43:46;8.27;;;4.10;;
79640;SDS011;69115;49.904;14.390;2023-09-07T10:46:21;6.65;;;4.25;;
79640;SDS011;69115;49.904;14.390;2023-09-07T10:48:51;4.65;;;3.55;;
79640;SDS011;69115;49.904;14.390;2023-09-07T10:51:17;6.78;;;3.80;;
79640;SDS011;69115;49.904;14.390;2023-09-07T10:53:44;7.07;;;3.80;;
79640;SDS011;69115;49.904;14.390;2023-09-07T10:56:09;4.47;;;3.63;;
79640;SDS011;69115;49.904;14.390;2023-09-07T10:58:36;5.30;;;3.60;;
79640;SDS011;69115;49.904;14.390;2023-09-07T11:01:07;5.55;;;3.72;;
79640;SDS011;69115;49.904;14.390;2023-09-07T11:03:33;5.18;;;4.05;;
79640;SDS011;69115;49.904;14.390;2023-09-07T11:08:37;6.07;;;3.75;;
79640;SDS011;69115;49.904;14.390;2023-09-07T11:11:02;5.95;;;3.70;;
79640;SDS011;69115;49.904;14.390;2023-09-07T11:13:28;6.18;;;3.70;;
79640;SDS011;69115;49.904;14.390;2023-09-07T11:15:54;6.47;;;3.90;;
79640;SDS011;69115;49.904;14.390;2023-09-07T11:18:21;6.53;;;3.97;;
79640;SDS011;69115;49.904;14.390;2023-09-07T11:20:48;6.82;;;3.80;;
79640;SDS011;69115;49.904;14.390;2023-09-07T11:23:14;6.22;;;3.85;;
79640;SDS011;69115;49.904;14.390;2023-09-07T11:25:39;5.88;;;3.65;;
79640;SDS011;69115;49.904;14.390;2023-09-07T11:28:05;6.50;;;3.83;;
79640;SDS011;69115;49.904;14.390;2023-09-07T11:30:32;9.60;;;3.95;;
79640;SDS011;69115;49.904;14.390;2023-09-07T11:35:30;5.25;;;3.60;;
79640;SDS011;69115;49.904;14.390;2023-09-07T11:37:55;6.13;;;3.80;;
79640;SDS011;69115;49.904;14.390;2023-09-07T11:40:21;5.75;;;4.20;;
79640;SDS011;69115;49.904;14.390;2023-09-07T11:42:47;6.47;;;3.80;;
79640;SDS011;69115;49.904;14.390;2023-09-07T11:45:13;8.13;;;4.47;;
79640;SDS011;69115;49.904;14.390;2023-09-07T11:47:39;5.90;;;4.05;;
79640;SDS011;69115;49.904;14.390;2023-09-07T11:50:05;7.97;;;3.97;;
79640;SDS011;69115;49.904;14.390;2023-09-07T11:52:32;5.30;;;3.80;;
79640;SDS011;69115;49.904;14.390;2023-09-07T11:54:57;6.55;;;4.30;;
79640;SDS011;69115;49.904;14.390;2023-09-07T11:57:23;7.80;;;3.85;;
79640;SDS011;69115;49.904;14.390;2023-09-07T11:59:49;6.55;;;4.18;;
79640;SDS011;69115;49.904;14.390;2023-09-07T12:02:15;7.30;;;4.38;;
79640;SDS011;69115;49.904;14.390;2023-09-07T12:04:42;8.07;;;4.43;;
79640;SDS011;69115;49.904;14.390;2023-09-07T12:07:07;6.70;;;4.38;;
79640;SDS011;69115;49.904;14.390;2023-09-07T12:09:33;5.05;;;3.92;;
79640;SDS011;69115;49.904;14.390;2023-09-07T12:11:58;9.00;;;3.88;;
79640;SDS011;69115;49.904;14.390;2023-09-07T12:14:24;6.18;;;4.13;;
79640;SDS011;69115;49.904;14.390;2023-09-07T12:16:49;8.35;;;4.45;;
79640;SDS011;69115;49.904;14.390;2023-09-07T12:19:15;6.15;;;3.88;;
79640;SDS011;69115;49.904;14.390;2023-09-07T12:21:40;6.68;;;3.95;;
79640;SDS011;69115;49.904;14.390;2023-09-07T12:24:07;4.93;;;3.83;;
79640;SDS011;69115;49.904;14.390;2023-09-07T12:26:32;5.97;;;3.70;;
79640;SDS011;69115;49.904;14.390;2023-09-07T12:28:58;5.45;;;3.85;;
79640;SDS011;69115;49.904;14.390;2023-09-07T12:31:23;5.90;;;4.32;;
79640;SDS011;69115;49.904;14.390;2023-09-07T12:33:49;5.60;;;3.90;;
79640;SDS011;69115;49.904;14.390;2023-09-07T12:36:14;5.22;;;3.67;;
79640;SDS011;69115;49.904;14.390;2023-09-07T12:38:40;5.75;;;4.32;;
79640;SDS011;69115;49.904;14.390;2023-09-07T12:41:05;5.13;;;3.95;;
79640;SDS011;69115;49.904;14.390;2023-09-07T12:43:31;6.13;;;4.03;;
79640;SDS011;69115;49.904;14.390;2023-09-07T12:45:57;5.68;;;4.20;;
79640;SDS011;69115;49.904;14.390;2023-09-07T12:48:23;6.95;;;4.00;;
79640;SDS011;69115;49.904;14.390;2023-09-07T12:50:49;5.85;;;3.97;;
79640;SDS011;69115;49.904;14.390;2023-09-07T12:53:14;4.95;;;3.67;;
79640;SDS011;69115;49.904;14.390;2023-09-07T12:55:40;5.80;;;4.10;;
79640;SDS011;69115;49.904;14.390;2023-09-07T12:58:05;7.10;;;4.20;;
79640;SDS011;69115;49.904;14.390;2023-09-07T13:07:26;6.72;;;4.40;;
79640;SDS011;69115;49.904;14.390;2023-09-07T13:09:52;6.65;;;3.78;;
79640;SDS011;69115;49.904;14.390;2023-09-07T13:12:19;5.57;;;4.40;;
79640;SDS011;69115;49.904;14.390;2023-09-07T13:14:45;6.18;;;3.80;;
79640;SDS011;69115;49.904;14.390;2023-09-07T13:17:11;6.28;;;4.10;;
79640;SDS011;69115;49.904;14.390;2023-09-07T13:19:38;5.28;;;3.92;;
79640;SDS011;69115;49.904;14.390;2023-09-07T13:22:03;10.25;;;5.00;;
79640;SDS011;69115;49.904;14.390;2023-09-07T13:24:31;5.68;;;4.15;;
79640;SDS011;69115;49.904;14.390;2023-09-07T13:26:56;6.93;;;3.85;;
79640;SDS011;69115;49.904;14.390;2023-09-07T13:29:22;5.95;;;4.03;;
79640;SDS011;69115;49.904;14.390;2023-09-07T13:31:47;5.38;;;4.30;;
79640;SDS011;69115;49.904;14.390;2023-09-07T13:34:13;7.57;;;4.22;;
79640;SDS011;69115;49.904;14.390;2023-09-07T13:36:38;6.65;;;4.05;;
79640;SDS011;69115;49.904;14.390;2023-09-07T13:39:04;7.43;;;4.18;;
79640;SDS011;69115;49.904;14.390;2023-09-07T13:41:29;5.45;;;3.83;;
79640;SDS011;69115;49.904;14.390;2023-09-07T13:43:55;5.30;;;4.00;;
79640;SDS011;69115;49.904;14.390;2023-09-07T13:46:21;8.27;;;4.13;;
79640;SDS011;69115;49.904;14.390;2023-09-07T13:48:48;7.32;;;3.90;;
79640;SDS011;69115;49.904;14.390;2023-09-07T13:51:13;9.10;;;4.10;;
79640;SDS011;69115;49.904;14.390;2023-09-07T13:53:39;7.93;;;4.20;;
79640;SDS011;69115;49.904;14.390;2023-09-07T13:56:04;6.75;;;4.10;;
79640;SDS011;69115;49.904;14.390;2023-09-07T13:58:30;6.68;;;4.10;;
79640;SDS011;69115;49.904;14.390;2023-09-07T14:00:55;6.97;;;3.78;;
79640;SDS011;69115;49.904;14.390;2023-09-07T14:03:21;7.25;;;4.13;;
79640;SDS011;69115;49.904;14.390;2023-09-07T14:05:46;6.10;;;4.10;;
79640;SDS011;69115;49.904;14.390;2023-09-07T14:17:54;7.05;;;4.10;;
79640;SDS011;69115;49.904;14.390;2023-09-07T14:20:20;6.50;;;3.60;;
79640;SDS011;69115;49.904;14.390;2023-09-07T14:23:00;5.82;;;3.65;;
79640;SDS011;69115;49.904;14.390;2023-09-07T14:25:29;7.93;;;4.07;;
79640;SDS011;69115;49.904;14.390;2023-09-07T14:27:55;7.78;;;4.00;;
79640;SDS011;69115;49.904;14.390;2023-09-07T14:31:10;6.07;;;3.85;;
79640;SDS011;69115;49.904;14.390;2023-09-07T14:33:35;5.78;;;3.78;;
79640;SDS011;69115;49.904;14.390;2023-09-07T14:36:06;6.13;;;4.13;;
79640;SDS011;69115;49.904;14.390;2023-09-07T14:38:32;6.05;;;3.90;;
79640;SDS011;69115;49.904;14.390;2023-09-07T14:41:00;8.30;;;3.95;;
79640;SDS011;69115;49.904;14.390;2023-09-07T14:43:25;5.82;;;4.13;;
79640;SDS011;69115;49.904;14.390;2023-09-07T14:45:51;4.65;;;3.67;;